Campiña-No se requiere un especial cuidado respecto a la situación meteorológica.   -   No hay avisos

Informes METAR

 

LEZL - Sevilla, Spain
Distancia de la estación: ENE 8km
Actualización: 23/04/2019 04:30
Parcialmente nuboso
Parcialmente nuboso
 Viento de SSO
Viento: SSO 11 km/h
Temperatura: 15°C
Rocío: 13°C
Humedad: 88%
Barómetro: 1000 hPa
Nubes: Parcialmente nuboso
Visibilidad: 10 km
Detalles de las nubes: Poco nuboso 914 m
Parcialmente nuboso 1372 m
2019/04/23 02:30 LEZL 230230Z 21006KT 160V250 9999 FEW030 SCT045 15/13 Q1000 NOSIG
LEMO - Morón, Spain
Distancia de la estación: SE 43km
Actualización: 23/04/2019 04:00
Poco nuboso
Poco nuboso
 Viento de SSO
Viento: SSO 15 km/h
Temperatura: 14°C
Rocío: 12°C
Humedad: 88%
Barómetro: 1001 hPa
Nubes: Poco nuboso
Visibilidad: 10 km
Detalles de las nubes: Poco nuboso 1554 m
2019/04/23 02:00 LEMO 230200Z 21008KT 170V230 9999 FEW051 14/12 Q1001 NOSIG
LEJR - Jeréz, Spain
Distancia de la estación: S 71km
Actualización: 23/04/2019 04:30
Despejado
Despejado
 Viento de SSO
Viento: SSO 24 km/h
Temperatura: 15°C
Rocío: 12°C
Humedad: 82%
Barómetro: 1001 hPa
Nubes: Despejado
Visibilidad: 10 km
2019/04/23 02:30 LEJR 230230Z AUTO 20013KT 9999 NCD 15/12 Q1001
 
LERT - Rota, Spain
Distancia de la estación: SSO 89km
Actualización: 23/04/2019 04:11
Lluvia, Muy nuboso
Lluvia, Muy nuboso
 Viento de SSO
Viento: SSO 26 km/h
Temperatura: 16°C
Rocío: 13°C
Humedad: 83%
Barómetro: 1001 hPa
Resumen: Lluvia
Nubes: Muy nuboso
Visibilidad: 8 km
Detalles de las nubes: Parcialmente nuboso 762 m
Muy nuboso 1463 m
2019/04/23 02:11 LERT 230211Z 21014KT 8000 RA SCT025 BKN048 16/13 Q1001 NOSIG
LEMG - Málaga, Spain
Distancia de la estación: ESE 157km
Actualización: 23/04/2019 04:30
Parcialmente nuboso
Parcialmente nuboso
 Viento de S
Viento: S 7 km/h
Temperatura: 16°C
Rocío: 11°C
Humedad: 72%
Barómetro: 1001 hPa
Nubes: Parcialmente nuboso
Visibilidad: 10 km
Detalles de las nubes: Poco nuboso 610 m
Parcialmente nuboso 1676 m
2019/04/23 02:30 LEMG 230230Z 17004KT 140V200 9999 FEW020 SCT055 16/11 Q1001 NOSIG
LEBA - Córdoba, Spain
Distancia de la estación: ENE 115km
Actualización: 23/04/2019 04:30
Muy nuboso
Muy nuboso
 Viento de SO
Viento: SO 22 km/h
Temperatura: 15°C
Rocío: 10°C
Humedad: 72%
Barómetro: 1000 hPa
Nubes: Muy nuboso
Visibilidad: 10 km
Detalles de las nubes: Poco nuboso 1097 m
Muy nuboso 1341 m
2019/04/23 02:30 LEBA 230230Z AUTO 23012KT 200V260 9999 FEW036 BKN044 15/10 Q1000
 
LEGR - Granada, Spain
Distancia de la estación: E 198km
Actualización: 23/04/2019 04:30
Despejado
Despejado
 Viento de SO
Viento: SO 9 km/h
Temperatura: 10°C
Sensación térmica: 9°C
Rocío: 7°C
Humedad: 82%
Barómetro: 1002 hPa
Resumen: Despejado
Visibilidad: mayor de 10 km
2019/04/23 02:30 LEGR 230230Z AUTO 22005KT CAVOK 10/07 Q1002
LEAM - Almería, Spain
Distancia de la estación: E 326km
Actualización: 23/04/2019 04:30
Despejado
Despejado
 Viento de OSO
Viento: OSO 31 km/h
Temperatura: 16°C
Rocío: 13°C
Humedad: 83%
Barómetro: 1000 hPa
Resumen: Despejado
Visibilidad: mayor de 10 km
2019/04/23 02:30 LEAM 230230Z AUTO 24017KT CAVOK 16/13 Q1000
LEMD - Madrid/Barajas, Spain
Distancia de la estación: NNE 402km
Actualización: 23/04/2019 04:30
Parcialmente nuboso
Parcialmente nuboso
 Viento de S
Viento: S 7 km/h
Temperatura: 13°C
Rocío: 7°C
Humedad: 67%
Barómetro: 997 hPa
Nubes: Parcialmente nuboso
Visibilidad: 10 km
Detalles de las nubes: Parcialmente nuboso 1128 m
Parcialmente nuboso 1981 m
2019/04/23 02:30 LEMD 230230Z 18004KT 140V210 9999 SCT037 SCT065 13/07 Q0997 TEMPO 4000 RA BKN012
 
LEVD - Valladolid, Spain
Distancia de la estación: N 492km
Actualización: 22/04/2019 21:30
NOT Current
Chubascos cercanos, Parcialmente nuboso
Chubascos cercanos, Parcialmente nuboso
 Viento de S
Viento: S 6 km/h
Temperatura: 12°C
Rocío: 7°C
Humedad: 72%
Barómetro: 997 hPa
Resumen: Nearby Showers
Nubes: Parcialmente nuboso
Visibilidad: 10 km
Detalles de las nubes: Parcialmente nuboso 1372 m
2019/04/22 19:30 LEVD 221930Z 19003KT 150V230 9999 VCSH SCT045TCU 12/07 Q0997
LEBL - Barcelona, Spain
Distancia de la estación: NE 816km
Actualización: 23/04/2019 04:30
Muy nuboso
Muy nuboso
 Viento de OSO
Viento: OSO 9 km/h
Temperatura: 14°C
Rocío: 13°C
Humedad: 94%
Barómetro: 997 hPa
Nubes: Muy nuboso
Visibilidad: 8 km
Detalles de las nubes: Muy nuboso 610 m
2019/04/23 02:30 LEBL 230230Z 25005KT 8000 BKN020 14/13 Q0997 NOSIG
LEVC - Valencia, Spain
Distancia de la estación: ENE 535km
Actualización: 23/04/2019 04:30
Poco nuboso
Poco nuboso
 Viento de ONO
Viento: ONO 6 km/h
Temperatura: 10°C
Rocío: 10°C
Humedad: 100%
Barómetro: 998 hPa
Nubes: Poco nuboso
Visibilidad: 10 km
Detalles de las nubes: Poco nuboso 1067 m
2019/04/23 02:30 LEVC 230230Z 29003KT 9999 FEW035 10/10 Q0998 NOSIG